sensor_id;sensor_type;location;lat;lon;timestamp;temperature;humidity
78315;SHT31;68596;52.080;4.662;2023-03-16T00:02:09;22.99;32.89
78315;SHT31;68596;52.080;4.662;2023-03-16T00:04:54;22.97;32.87
78315;SHT31;68596;52.080;4.662;2023-03-16T00:07:39;22.97;32.94
78315;SHT31;68596;52.080;4.662;2023-03-16T00:10:25;22.94;32.80
78315;SHT31;68596;52.080;4.662;2023-03-16T00:13:10;22.95;32.84
78315;SHT31;68596;52.080;4.662;2023-03-16T00:16:00;22.90;32.96
78315;SHT31;68596;52.080;4.662;2023-03-16T00:18:47;22.91;33.00
78315;SHT31;68596;52.080;4.662;2023-03-16T00:21:31;22.88;32.89
78315;SHT31;68596;52.080;4.662;2023-03-16T00:24:16;22.87;33.00
78315;SHT31;68596;52.080;4.662;2023-03-16T00:27:03;22.86;32.88
78315;SHT31;68596;52.080;4.662;2023-03-16T00:29:49;22.83;32.96
78315;SHT31;68596;52.080;4.662;2023-03-16T00:32:38;22.78;32.93
78315;SHT31;68596;52.080;4.662;2023-03-16T00:35:22;22.77;32.94
78315;SHT31;68596;52.080;4.662;2023-03-16T00:38:06;22.78;32.93
78315;SHT31;68596;52.080;4.662;2023-03-16T00:40:50;22.77;32.99
78315;SHT31;68596;52.080;4.662;2023-03-16T00:43:37;22.74;32.93
78315;SHT31;68596;52.080;4.662;2023-03-16T00:46:24;22.72;32.97
78315;SHT31;68596;52.080;4.662;2023-03-16T00:49:09;22.74;33.05
78315;SHT31;68596;52.080;4.662;2023-03-16T00:51:53;22.74;33.00
78315;SHT31;68596;52.080;4.662;2023-03-16T00:54:37;22.71;32.90
78315;SHT31;68596;52.080;4.662;2023-03-16T00:57:23;22.72;33.07
78315;SHT31;68596;52.080;4.662;2023-03-16T01:00:08;22.72;33.09
78315;SHT31;68596;52.080;4.662;2023-03-16T01:02:55;22.71;33.10
78315;SHT31;68596;52.080;4.662;2023-03-16T01:05:40;22.68;33.11
78315;SHT31;68596;52.080;4.662;2023-03-16T01:08:26;22.67;33.14
78315;SHT31;68596;52.080;4.662;2023-03-16T01:11:19;22.67;33.11
78315;SHT31;68596;52.080;4.662;2023-03-16T01:14:03;22.65;33.14
78315;SHT31;68596;52.080;4.662;2023-03-16T01:16:48;22.67;33.17
78315;SHT31;68596;52.080;4.662;2023-03-16T01:19:32;22.64;33.20
78315;SHT31;68596;52.080;4.662;2023-03-16T01:22:16;22.64;33.18
78315;SHT31;68596;52.080;4.662;2023-03-16T01:25:01;22.64;33.14
78315;SHT31;68596;52.080;4.662;2023-03-16T01:27:45;22.61;33.15
78315;SHT31;68596;52.080;4.662;2023-03-16T01:30:29;22.61;33.21
78315;SHT31;68596;52.080;4.662;2023-03-16T01:33:13;22.58;33.15
78315;SHT31;68596;52.080;4.662;2023-03-16T01:36:04;22.57;33.30
78315;SHT31;68596;52.080;4.662;2023-03-16T01:38:48;22.54;33.34
78315;SHT31;68596;52.080;4.662;2023-03-16T01:41:32;22.54;33.38
78315;SHT31;68596;52.080;4.662;2023-03-16T01:44:21;22.51;33.31
78315;SHT31;68596;52.080;4.662;2023-03-16T01:47:07;22.50;33.43
78315;SHT31;68596;52.080;4.662;2023-03-16T01:49:55;22.48;33.44
78315;SHT31;68596;52.080;4.662;2023-03-16T01:52:39;22.48;33.38
78315;SHT31;68596;52.080;4.662;2023-03-16T01:55:23;22.48;33.41
78315;SHT31;68596;52.080;4.662;2023-03-16T01:58:07;22.47;33.47
78315;SHT31;68596;52.080;4.662;2023-03-16T02:00:52;22.46;33.42
78315;SHT31;68596;52.080;4.662;2023-03-16T02:03:38;22.47;33.38
78315;SHT31;68596;52.080;4.662;2023-03-16T02:06:23;22.48;33.52
78315;SHT31;68596;52.080;4.662;2023-03-16T02:09:08;22.44;33.47
78315;SHT31;68596;52.080;4.662;2023-03-16T02:11:53;22.46;33.50
78315;SHT31;68596;52.080;4.662;2023-03-16T02:14:38;22.46;33.53
78315;SHT31;68596;52.080;4.662;2023-03-16T02:17:30;22.43;33.57
78315;SHT31;68596;52.080;4.662;2023-03-16T02:23:02;22.41;33.57
78315;SHT31;68596;52.080;4.662;2023-03-16T02:31:56;22.40;33.63
78315;SHT31;68596;52.080;4.662;2023-03-16T02:34:42;22.39;33.62
78315;SHT31;68596;52.080;4.662;2023-03-16T02:37:26;22.35;33.68
78315;SHT31;68596;52.080;4.662;2023-03-16T02:40:32;22.36;33.66
78315;SHT31;68596;52.080;4.662;2023-03-16T02:43:21;22.35;33.68
78315;SHT31;68596;52.080;4.662;2023-03-16T02:46:07;22.35;33.74
78315;SHT31;68596;52.080;4.662;2023-03-16T02:49:02;22.32;33.78
78315;SHT31;68596;52.080;4.662;2023-03-16T02:51:48;22.32;33.74
78315;SHT31;68596;52.080;4.662;2023-03-16T02:54:33;22.32;33.79
78315;SHT31;68596;52.080;4.662;2023-03-16T02:57:17;22.30;33.76
78315;SHT31;68596;52.080;4.662;2023-03-16T03:00:01;22.29;33.79
78315;SHT31;68596;52.080;4.662;2023-03-16T03:02:54;22.29;33.86
78315;SHT31;68596;52.080;4.662;2023-03-16T03:05:38;22.27;33.84
78315;SHT31;68596;52.080;4.662;2023-03-16T03:08:22;22.27;33.83
78315;SHT31;68596;52.080;4.662;2023-03-16T03:11:06;22.26;33.94
78315;SHT31;68596;52.080;4.662;2023-03-16T03:13:50;22.26;33.92
78315;SHT31;68596;52.080;4.662;2023-03-16T03:16:34;22.23;33.95
78315;SHT31;68596;52.080;4.662;2023-03-16T03:19:19;22.23;33.95
78315;SHT31;68596;52.080;4.662;2023-03-16T03:22:04;22.21;33.96
78315;SHT31;68596;52.080;4.662;2023-03-16T03:24:49;22.23;34.03
78315;SHT31;68596;52.080;4.662;2023-03-16T03:27:34;22.20;34.04
78315;SHT31;68596;52.080;4.662;2023-03-16T03:30:21;22.18;34.05
78315;SHT31;68596;52.080;4.662;2023-03-16T03:33:07;22.20;34.09
78315;SHT31;68596;52.080;4.662;2023-03-16T03:35:56;22.18;34.01
78315;SHT31;68596;52.080;4.662;2023-03-16T03:38:40;22.18;34.08
78315;SHT31;68596;52.080;4.662;2023-03-16T03:41:24;22.18;34.12
78315;SHT31;68596;52.080;4.662;2023-03-16T03:44:08;22.14;34.14
78315;SHT31;68596;52.080;4.662;2023-03-16T03:46:53;22.14;34.12
78315;SHT31;68596;52.080;4.662;2023-03-16T03:49:37;22.14;34.17
78315;SHT31;68596;52.080;4.662;2023-03-16T03:52:21;22.16;34.17
78315;SHT31;68596;52.080;4.662;2023-03-16T03:55:06;22.13;34.17
78315;SHT31;68596;52.080;4.662;2023-03-16T03:57:50;22.14;34.17
78315;SHT31;68596;52.080;4.662;2023-03-16T04:00:34;22.09;34.22
78315;SHT31;68596;52.080;4.662;2023-03-16T04:03:19;22.10;34.26
78315;SHT31;68596;52.080;4.662;2023-03-16T04:06:03;22.10;34.26
78315;SHT31;68596;52.080;4.662;2023-03-16T04:08:47;22.07;34.27
78315;SHT31;68596;52.080;4.662;2023-03-16T04:11:33;22.07;34.34
78315;SHT31;68596;52.080;4.662;2023-03-16T04:14:17;22.07;34.35
78315;SHT31;68596;52.080;4.662;2023-03-16T04:17:01;22.05;34.47
78315;SHT31;68596;52.080;4.662;2023-03-16T04:19:47;22.02;34.41
78315;SHT31;68596;52.080;4.662;2023-03-16T04:22:31;22.03;34.42
78315;SHT31;68596;52.080;4.662;2023-03-16T04:25:16;22.03;34.45
78315;SHT31;68596;52.080;4.662;2023-03-16T04:28:01;22.03;34.46
78315;SHT31;68596;52.080;4.662;2023-03-16T04:30:45;22.02;34.45
78315;SHT31;68596;52.080;4.662;2023-03-16T04:33:30;22.05;34.49
78315;SHT31;68596;52.080;4.662;2023-03-16T04:36:15;22.02;34.48
78315;SHT31;68596;52.080;4.662;2023-03-16T04:38:59;21.99;34.46
78315;SHT31;68596;52.080;4.662;2023-03-16T04:41:43;22.02;34.54
78315;SHT31;68596;52.080;4.662;2023-03-16T04:44:27;21.96;34.58
78315;SHT31;68596;52.080;4.662;2023-03-16T04:47:13;21.97;34.58
78315;SHT31;68596;52.080;4.662;2023-03-16T04:50:02;21.97;34.62
78315;SHT31;68596;52.080;4.662;2023-03-16T04:52:47;21.95;34.67
78315;SHT31;68596;52.080;4.662;2023-03-16T04:55:31;21.93;34.67
78315;SHT31;68596;52.080;4.662;2023-03-16T04:58:16;21.93;34.64
78315;SHT31;68596;52.080;4.662;2023-03-16T05:01:00;21.93;34.70
78315;SHT31;68596;52.080;4.662;2023-03-16T05:03:45;21.90;34.72
78315;SHT31;68596;52.080;4.662;2023-03-16T05:06:29;21.90;34.70
78315;SHT31;68596;52.080;4.662;2023-03-16T05:09:14;21.90;34.76
78315;SHT31;68596;52.080;4.662;2023-03-16T05:11:58;21.88;34.75
78315;SHT31;68596;52.080;4.662;2023-03-16T05:14:42;21.86;34.85
78315;SHT31;68596;52.080;4.662;2023-03-16T05:17:26;21.83;34.84
78315;SHT31;68596;52.080;4.662;2023-03-16T05:20:12;21.82;34.85
78315;SHT31;68596;52.080;4.662;2023-03-16T05:22:57;21.82;34.86
78315;SHT31;68596;52.080;4.662;2023-03-16T05:25:41;21.83;34.93
78315;SHT31;68596;52.080;4.662;2023-03-16T05:28:26;21.82;34.94
78315;SHT31;68596;52.080;4.662;2023-03-16T05:31:10;21.82;34.92
78315;SHT31;68596;52.080;4.662;2023-03-16T05:33:55;21.79;34.97
78315;SHT31;68596;52.080;4.662;2023-03-16T05:36:40;21.79;34.99
78315;SHT31;68596;52.080;4.662;2023-03-16T05:39:24;21.78;34.99
78315;SHT31;68596;52.080;4.662;2023-03-16T05:42:09;21.78;34.97
78315;SHT31;68596;52.080;4.662;2023-03-16T05:44:53;21.78;35.02
78315;SHT31;68596;52.080;4.662;2023-03-16T05:47:38;21.78;35.01
78315;SHT31;68596;52.080;4.662;2023-03-16T05:50:22;21.76;35.05
78315;SHT31;68596;52.080;4.662;2023-03-16T05:53:07;21.76;35.08
78315;SHT31;68596;52.080;4.662;2023-03-16T05:55:51;21.76;35.18
78315;SHT31;68596;52.080;4.662;2023-03-16T05:58:36;21.78;35.23
78315;SHT31;68596;52.080;4.662;2023-03-16T06:01:21;21.82;35.15
78315;SHT31;68596;52.080;4.662;2023-03-16T06:04:05;21.85;35.13
78315;SHT31;68596;52.080;4.662;2023-03-16T06:06:50;21.93;35.13
78315;SHT31;68596;52.080;4.662;2023-03-16T06:09:34;21.97;35.07
78315;SHT31;68596;52.080;4.662;2023-03-16T06:12:18;22.03;35.14
78315;SHT31;68596;52.080;4.662;2023-03-16T06:15:04;22.07;35.12
78315;SHT31;68596;52.080;4.662;2023-03-16T06:17:51;22.14;35.09
78315;SHT31;68596;52.080;4.662;2023-03-16T06:20:35;22.24;35.10
78315;SHT31;68596;52.080;4.662;2023-03-16T06:23:19;22.32;35.06
78315;SHT31;68596;52.080;4.662;2023-03-16T06:26:04;22.37;34.97
78315;SHT31;68596;52.080;4.662;2023-03-16T06:28:49;22.48;34.86
78315;SHT31;68596;52.080;4.662;2023-03-16T06:31:33;22.56;34.98
78315;SHT31;68596;52.080;4.662;2023-03-16T06:34:17;22.58;34.98
78315;SHT31;68596;52.080;4.662;2023-03-16T06:37:02;22.67;34.88
78315;SHT31;68596;52.080;4.662;2023-03-16T06:39:47;22.77;34.81
78315;SHT31;68596;52.080;4.662;2023-03-16T06:42:31;22.81;34.80
78315;SHT31;68596;52.080;4.662;2023-03-16T06:45:17;22.87;34.77
78315;SHT31;68596;52.080;4.662;2023-03-16T06:48:04;22.91;34.85
78315;SHT31;68596;52.080;4.662;2023-03-16T06:50:50;22.90;34.80
78315;SHT31;68596;52.080;4.662;2023-03-16T06:53:34;22.87;34.85
78315;SHT31;68596;52.080;4.662;2023-03-16T06:56:18;22.84;34.82
78315;SHT31;68596;52.080;4.662;2023-03-16T06:59:02;22.83;34.89
78315;SHT31;68596;52.080;4.662;2023-03-16T07:01:46;22.81;34.89
78315;SHT31;68596;52.080;4.662;2023-03-16T07:04:31;22.79;34.86
78315;SHT31;68596;52.080;4.662;2023-03-16T07:07:15;22.75;34.95
78315;SHT31;68596;52.080;4.662;2023-03-16T07:10:00;22.75;34.99
78315;SHT31;68596;52.080;4.662;2023-03-16T07:12:45;22.72;34.93
78315;SHT31;68596;52.080;4.662;2023-03-16T07:15:29;22.74;35.02
78315;SHT31;68596;52.080;4.662;2023-03-16T07:18:14;22.74;35.02
78315;SHT31;68596;52.080;4.662;2023-03-16T07:20:58;22.72;34.91
78315;SHT31;68596;52.080;4.662;2023-03-16T07:23:42;22.68;34.97
78315;SHT31;68596;52.080;4.662;2023-03-16T07:26:27;22.69;35.00
78315;SHT31;68596;52.080;4.662;2023-03-16T07:29:12;22.71;35.00
78315;SHT31;68596;52.080;4.662;2023-03-16T07:31:57;22.71;34.99
78315;SHT31;68596;52.080;4.662;2023-03-16T07:34:41;22.72;34.99
78315;SHT31;68596;52.080;4.662;2023-03-16T07:37:25;22.71;34.99
78315;SHT31;68596;52.080;4.662;2023-03-16T07:40:10;22.71;35.06
78315;SHT31;68596;52.080;4.662;2023-03-16T07:42:54;22.74;35.06
78315;SHT31;68596;52.080;4.662;2023-03-16T07:45:38;22.74;35.03
78315;SHT31;68596;52.080;4.662;2023-03-16T07:48:23;22.77;35.06
78315;SHT31;68596;52.080;4.662;2023-03-16T07:51:08;22.79;35.09
78315;SHT31;68596;52.080;4.662;2023-03-16T07:53:52;22.83;35.01
78315;SHT31;68596;52.080;4.662;2023-03-16T07:56:36;22.79;35.02
78315;SHT31;68596;52.080;4.662;2023-03-16T07:59:21;22.83;35.04
78315;SHT31;68596;52.080;4.662;2023-03-16T08:02:11;22.83;35.00
78315;SHT31;68596;52.080;4.662;2023-03-16T08:04:56;22.84;35.05
78315;SHT31;68596;52.080;4.662;2023-03-16T08:07:40;22.84;35.11
78315;SHT31;68596;52.080;4.662;2023-03-16T08:10:24;22.90;35.13
78315;SHT31;68596;52.080;4.662;2023-03-16T08:13:08;22.88;35.17
78315;SHT31;68596;52.080;4.662;2023-03-16T08:15:53;22.90;35.17
78315;SHT31;68596;52.080;4.662;2023-03-16T08:18:41;22.90;35.07
78315;SHT31;68596;52.080;4.662;2023-03-16T08:21:25;22.86;35.16
78315;SHT31;68596;52.080;4.662;2023-03-16T08:24:09;22.84;35.16
78315;SHT31;68596;52.080;4.662;2023-03-16T08:26:54;22.84;35.18
78315;SHT31;68596;52.080;4.662;2023-03-16T08:29:39;22.84;35.21
78315;SHT31;68596;52.080;4.662;2023-03-16T08:32:23;22.84;35.20
78315;SHT31;68596;52.080;4.662;2023-03-16T08:35:10;22.83;35.23
78315;SHT31;68596;52.080;4.662;2023-03-16T08:37:56;22.84;35.28
78315;SHT31;68596;52.080;4.662;2023-03-16T08:40:41;22.87;35.22
78315;SHT31;68596;52.080;4.662;2023-03-16T08:43:31;22.87;35.28
78315;SHT31;68596;52.080;4.662;2023-03-16T08:46:15;22.87;35.24
78315;SHT31;68596;52.080;4.662;2023-03-16T08:49:00;22.91;35.22
78315;SHT31;68596;52.080;4.662;2023-03-16T08:51:45;22.92;35.23
78315;SHT31;68596;52.080;4.662;2023-03-16T08:54:29;22.92;35.26
78315;SHT31;68596;52.080;4.662;2023-03-16T08:57:15;22.94;35.22
78315;SHT31;68596;52.080;4.662;2023-03-16T09:00:00;22.95;35.16
78315;SHT31;68596;52.080;4.662;2023-03-16T09:02:44;22.98;35.19
78315;SHT31;68596;52.080;4.662;2023-03-16T09:05:30;22.99;35.18
78315;SHT31;68596;52.080;4.662;2023-03-16T09:08:14;22.95;35.17
78315;SHT31;68596;52.080;4.662;2023-03-16T09:11:06;22.99;35.17
78315;SHT31;68596;52.080;4.662;2023-03-16T09:13:50;23.01;35.17
78315;SHT31;68596;52.080;4.662;2023-03-16T09:16:35;22.98;35.14
78315;SHT31;68596;52.080;4.662;2023-03-16T09:19:19;22.99;35.18
78315;SHT31;68596;52.080;4.662;2023-03-16T09:22:04;23.01;35.14
78315;SHT31;68596;52.080;4.662;2023-03-16T09:24:48;22.99;35.11
78315;SHT31;68596;52.080;4.662;2023-03-16T09:27:33;23.01;35.11
78315;SHT31;68596;52.080;4.662;2023-03-16T09:30:19;22.99;35.08
78315;SHT31;68596;52.080;4.662;2023-03-16T09:33:03;23.01;35.07
78315;SHT31;68596;52.080;4.662;2023-03-16T09:35:47;23.01;35.10
78315;SHT31;68596;52.080;4.662;2023-03-16T09:38:32;23.01;35.10
78315;SHT31;68596;52.080;4.662;2023-03-16T09:41:47;23.02;35.21
78315;SHT31;68596;52.080;4.662;2023-03-16T09:47:36;23.01;35.23
78315;SHT31;68596;52.080;4.662;2023-03-16T09:50:28;23.04;35.25
78315;SHT31;68596;52.080;4.662;2023-03-16T09:53:29;23.02;35.22
78315;SHT31;68596;52.080;4.662;2023-03-16T09:56:23;23.02;35.19
78315;SHT31;68596;52.080;4.662;2023-03-16T09:59:12;23.05;35.25
78315;SHT31;68596;52.080;4.662;2023-03-16T10:02:21;23.05;35.24
78315;SHT31;68596;52.080;4.662;2023-03-16T10:05:14;23.07;35.25
78315;SHT31;68596;52.080;4.662;2023-03-16T10:14:08;23.15;35.45
78315;SHT31;68596;52.080;4.662;2023-03-16T10:17:18;23.16;35.45
78315;SHT31;68596;52.080;4.662;2023-03-16T10:20:15;23.19;35.44
78315;SHT31;68596;52.080;4.662;2023-03-16T10:23:14;23.22;35.51
78315;SHT31;68596;52.080;4.662;2023-03-16T10:26:11;23.25;35.50
78315;SHT31;68596;52.080;4.662;2023-03-16T10:28:56;23.26;35.34
78315;SHT31;68596;52.080;4.662;2023-03-16T10:31:41;23.26;35.46
78315;SHT31;68596;52.080;4.662;2023-03-16T10:34:25;23.28;35.46
78315;SHT31;68596;52.080;4.662;2023-03-16T10:37:12;23.28;35.41
78315;SHT31;68596;52.080;4.662;2023-03-16T10:39:57;23.28;35.27
78315;SHT31;68596;52.080;4.662;2023-03-16T10:42:43;23.26;35.35
78315;SHT31;68596;52.080;4.662;2023-03-16T10:45:31;23.26;35.30
78315;SHT31;68596;52.080;4.662;2023-03-16T10:48:19;23.29;35.34
78315;SHT31;68596;52.080;4.662;2023-03-16T10:51:12;23.31;35.41
78315;SHT31;68596;52.080;4.662;2023-03-16T10:57:17;23.39;35.39
78315;SHT31;68596;52.080;4.662;2023-03-16T11:02:58;23.43;35.41
78315;SHT31;68596;52.080;4.662;2023-03-16T11:05:43;23.48;35.38
78315;SHT31;68596;52.080;4.662;2023-03-16T11:08:34;23.49;35.36
78315;SHT31;68596;52.080;4.662;2023-03-16T11:11:26;23.50;35.30
78315;SHT31;68596;52.080;4.662;2023-03-16T11:14:12;23.52;35.32
78315;SHT31;68596;52.080;4.662;2023-03-16T11:17:08;23.58;35.30
78315;SHT31;68596;52.080;4.662;2023-03-16T11:19:59;23.58;35.27
78315;SHT31;68596;52.080;4.662;2023-03-16T11:22:48;23.58;35.21
78315;SHT31;68596;52.080;4.662;2023-03-16T11:25:47;23.59;35.21
78315;SHT31;68596;52.080;4.662;2023-03-16T11:28:39;23.59;35.22
78315;SHT31;68596;52.080;4.662;2023-03-16T11:34:36;23.59;35.18
78315;SHT31;68596;52.080;4.662;2023-03-16T11:37:35;23.55;35.23
78315;SHT31;68596;52.080;4.662;2023-03-16T11:40:42;23.56;35.27
78315;SHT31;68596;52.080;4.662;2023-03-16T11:43:47;23.59;35.37
78315;SHT31;68596;52.080;4.662;2023-03-16T11:46:52;23.58;35.40
78315;SHT31;68596;52.080;4.662;2023-03-16T12:06:05;23.67;35.46
78315;SHT31;68596;52.080;4.662;2023-03-16T12:09:17;23.69;35.51
78315;SHT31;68596;52.080;4.662;2023-03-16T12:18:30;23.76;35.43
78315;SHT31;68596;52.080;4.662;2023-03-16T12:21:24;23.74;35.40
78315;SHT31;68596;52.080;4.662;2023-03-16T12:24:21;23.73;35.41
78315;SHT31;68596;52.080;4.662;2023-03-16T12:27:56;23.76;35.35
78315;SHT31;68596;52.080;4.662;2023-03-16T12:37:50;23.76;35.31
78315;SHT31;68596;52.080;4.662;2023-03-16T12:46:40;23.80;35.21
78315;SHT31;68596;52.080;4.662;2023-03-16T12:49:31;23.77;35.17
78315;SHT31;68596;52.080;4.662;2023-03-16T12:52:15;23.77;35.14
78315;SHT31;68596;52.080;4.662;2023-03-16T12:55:25;23.74;35.11
78315;SHT31;68596;52.080;4.662;2023-03-16T12:58:23;23.76;35.11
78315;SHT31;68596;52.080;4.662;2023-03-16T13:01:11;23.74;35.11
78315;SHT31;68596;52.080;4.662;2023-03-16T13:04:11;23.76;35.12
78315;SHT31;68596;52.080;4.662;2023-03-16T13:07:06;23.73;35.10
78315;SHT31;68596;52.080;4.662;2023-03-16T13:10:02;23.73;35.16
78315;SHT31;68596;52.080;4.662;2023-03-16T13:12:51;23.74;35.14
78315;SHT31;68596;52.080;4.662;2023-03-16T13:15:35;23.76;35.21
78315;SHT31;68596;52.080;4.662;2023-03-16T13:18:22;23.73;35.23
78315;SHT31;68596;52.080;4.662;2023-03-16T13:21:39;23.74;35.20
78315;SHT31;68596;52.080;4.662;2023-03-16T13:24:35;23.76;35.17
78315;SHT31;68596;52.080;4.662;2023-03-16T13:27:26;23.77;35.15
78315;SHT31;68596;52.080;4.662;2023-03-16T13:30:21;23.76;35.18
78315;SHT31;68596;52.080;4.662;2023-03-16T13:33:28;23.76;35.17
78315;SHT31;68596;52.080;4.662;2023-03-16T13:36:14;23.77;35.17
78315;SHT31;68596;52.080;4.662;2023-03-16T13:39:16;23.77;35.13
78315;SHT31;68596;52.080;4.662;2023-03-16T13:42:25;23.76;35.07
78315;SHT31;68596;52.080;4.662;2023-03-16T13:45:14;23.76;35.03
78315;SHT31;68596;52.080;4.662;2023-03-16T13:47:59;23.79;35.02
78315;SHT31;68596;52.080;4.662;2023-03-16T13:50:54;23.79;34.98
78315;SHT31;68596;52.080;4.662;2023-03-16T13:53:40;23.80;34.98
78315;SHT31;68596;52.080;4.662;2023-03-16T13:56:26;23.80;34.95
78315;SHT31;68596;52.080;4.662;2023-03-16T13:59:12;23.82;34.93
78315;SHT31;68596;52.080;4.662;2023-03-16T14:01:59;23.82;34.90
78315;SHT31;68596;52.080;4.662;2023-03-16T14:04:45;23.83;34.93
78315;SHT31;68596;52.080;4.662;2023-03-16T14:07:36;23.86;34.86
78315;SHT31;68596;52.080;4.662;2023-03-16T14:10:26;23.89;34.85
78315;SHT31;68596;52.080;4.662;2023-03-16T14:16:17;23.94;34.70
78315;SHT31;68596;52.080;4.662;2023-03-16T14:19:07;23.93;34.66
78315;SHT31;68596;52.080;4.662;2023-03-16T14:22:01;23.96;34.65
78315;SHT31;68596;52.080;4.662;2023-03-16T14:24:53;23.96;34.62
78315;SHT31;68596;52.080;4.662;2023-03-16T14:30:27;23.96;34.57
78315;SHT31;68596;52.080;4.662;2023-03-16T14:33:31;23.93;34.61
78315;SHT31;68596;52.080;4.662;2023-03-16T14:36:17;23.94;34.62
78315;SHT31;68596;52.080;4.662;2023-03-16T14:39:14;23.96;34.57
78315;SHT31;68596;52.080;4.662;2023-03-16T14:42:04;23.96;34.61
78315;SHT31;68596;52.080;4.662;2023-03-16T14:44:49;23.97;34.55
78315;SHT31;68596;52.080;4.662;2023-03-16T14:47:40;23.97;34.59
78315;SHT31;68596;52.080;4.662;2023-03-16T14:50:25;23.99;34.54
78315;SHT31;68596;52.080;4.662;2023-03-16T14:53:09;23.97;34.56
78315;SHT31;68596;52.080;4.662;2023-03-16T14:55:55;24.03;34.52
78315;SHT31;68596;52.080;4.662;2023-03-16T14:58:39;24.00;34.51
78315;SHT31;68596;52.080;4.662;2023-03-16T15:01:24;24.03;34.51
78315;SHT31;68596;52.080;4.662;2023-03-16T15:04:13;24.06;34.46
78315;SHT31;68596;52.080;4.662;2023-03-16T15:06:57;24.09;34.43
78315;SHT31;68596;52.080;4.662;2023-03-16T15:09:43;24.09;34.43
78315;SHT31;68596;52.080;4.662;2023-03-16T15:12:27;24.10;34.38
78315;SHT31;68596;52.080;4.662;2023-03-16T15:15:16;24.14;34.38
78315;SHT31;68596;52.080;4.662;2023-03-16T15:18:01;24.14;34.27
78315;SHT31;68596;52.080;4.662;2023-03-16T15:20:45;24.18;34.27
78315;SHT31;68596;52.080;4.662;2023-03-16T15:23:32;24.20;34.27
78315;SHT31;68596;52.080;4.662;2023-03-16T15:26:21;24.21;34.26
78315;SHT31;68596;52.080;4.662;2023-03-16T15:29:10;24.20;34.25
78315;SHT31;68596;52.080;4.662;2023-03-16T15:31:54;24.18;34.25
78315;SHT31;68596;52.080;4.662;2023-03-16T15:34:38;24.18;34.25
78315;SHT31;68596;52.080;4.662;2023-03-16T15:37:23;24.16;34.23
78315;SHT31;68596;52.080;4.662;2023-03-16T15:40:24;24.16;34.23
78315;SHT31;68596;52.080;4.662;2023-03-16T15:43:15;24.11;34.20
78315;SHT31;68596;52.080;4.662;2023-03-16T15:46:00;24.13;34.23
78315;SHT31;68596;52.080;4.662;2023-03-16T15:48:44;24.11;34.24
78315;SHT31;68596;52.080;4.662;2023-03-16T15:51:29;24.14;34.23
78315;SHT31;68596;52.080;4.662;2023-03-16T15:54:14;24.14;34.19
78315;SHT31;68596;52.080;4.662;2023-03-16T15:56:58;24.16;34.15
78315;SHT31;68596;52.080;4.662;2023-03-16T15:59:43;24.14;34.13
78315;SHT31;68596;52.080;4.662;2023-03-16T16:02:30;24.13;34.03
78315;SHT31;68596;52.080;4.662;2023-03-16T16:05:14;24.14;33.99
78315;SHT31;68596;52.080;4.662;2023-03-16T16:07:59;24.11;33.94
78315;SHT31;68596;52.080;4.662;2023-03-16T16:10:45;24.10;33.92
78315;SHT31;68596;52.080;4.662;2023-03-16T16:13:30;24.10;33.95
78315;SHT31;68596;52.080;4.662;2023-03-16T16:16:16;24.09;33.92
78315;SHT31;68596;52.080;4.662;2023-03-16T16:19:00;24.06;33.94
78315;SHT31;68596;52.080;4.662;2023-03-16T16:21:45;24.04;33.92
78315;SHT31;68596;52.080;4.662;2023-03-16T16:24:30;24.06;34.01
78315;SHT31;68596;52.080;4.662;2023-03-16T16:27:14;24.04;34.10
78315;SHT31;68596;52.080;4.662;2023-03-16T16:29:59;24.06;34.13
78315;SHT31;68596;52.080;4.662;2023-03-16T16:32:43;24.07;34.10
78315;SHT31;68596;52.080;4.662;2023-03-16T16:35:27;24.11;34.14
78315;SHT31;68596;52.080;4.662;2023-03-16T16:38:11;24.13;34.10
78315;SHT31;68596;52.080;4.662;2023-03-16T16:40:58;24.18;34.11
78315;SHT31;68596;52.080;4.662;2023-03-16T16:43:46;24.24;34.10
78315;SHT31;68596;52.080;4.662;2023-03-16T16:46:36;24.28;34.09
78315;SHT31;68596;52.080;4.662;2023-03-16T16:49:25;24.34;34.05
78315;SHT31;68596;52.080;4.662;2023-03-16T16:52:16;24.37;34.04
78315;SHT31;68596;52.080;4.662;2023-03-16T16:55:00;24.41;33.98
78315;SHT31;68596;52.080;4.662;2023-03-16T16:57:47;24.45;33.97
78315;SHT31;68596;52.080;4.662;2023-03-16T17:00:31;24.47;33.96
78315;SHT31;68596;52.080;4.662;2023-03-16T17:03:25;24.48;33.89
78315;SHT31;68596;52.080;4.662;2023-03-16T17:06:16;24.48;33.86
78315;SHT31;68596;52.080;4.662;2023-03-16T17:09:00;24.47;33.85
78315;SHT31;68596;52.080;4.662;2023-03-16T17:11:44;24.45;33.86
78315;SHT31;68596;52.080;4.662;2023-03-16T17:14:28;24.45;33.85
78315;SHT31;68596;52.080;4.662;2023-03-16T17:17:15;24.43;33.83
78315;SHT31;68596;52.080;4.662;2023-03-16T17:20:00;24.41;33.82
78315;SHT31;68596;52.080;4.662;2023-03-16T17:22:46;24.43;33.83
78315;SHT31;68596;52.080;4.662;2023-03-16T17:25:30;24.40;33.80
78315;SHT31;68596;52.080;4.662;2023-03-16T17:28:15;24.38;33.84
78315;SHT31;68596;52.080;4.662;2023-03-16T17:31:00;24.34;33.91
78315;SHT31;68596;52.080;4.662;2023-03-16T17:33:44;24.35;33.90
78315;SHT31;68596;52.080;4.662;2023-03-16T17:36:29;24.34;33.93
78315;SHT31;68596;52.080;4.662;2023-03-16T17:39:23;24.33;33.90
78315;SHT31;68596;52.080;4.662;2023-03-16T17:42:16;24.33;33.93
78315;SHT31;68596;52.080;4.662;2023-03-16T17:45:23;24.33;33.93
78315;SHT31;68596;52.080;4.662;2023-03-16T17:48:17;24.30;33.96
78315;SHT31;68596;52.080;4.662;2023-03-16T17:51:02;24.33;33.90
78315;SHT31;68596;52.080;4.662;2023-03-16T17:53:47;24.33;33.89
78315;SHT31;68596;52.080;4.662;2023-03-16T17:56:32;24.34;33.88
78315;SHT31;68596;52.080;4.662;2023-03-16T17:59:19;24.37;33.85
78315;SHT31;68596;52.080;4.662;2023-03-16T18:05:17;24.43;33.78
78315;SHT31;68596;52.080;4.662;2023-03-16T18:08:26;24.40;33.75
78315;SHT31;68596;52.080;4.662;2023-03-16T18:11:16;24.38;33.72
78315;SHT31;68596;52.080;4.662;2023-03-16T18:14:06;24.37;33.74
78315;SHT31;68596;52.080;4.662;2023-03-16T18:16:51;24.38;33.67
78315;SHT31;68596;52.080;4.662;2023-03-16T18:19:37;24.37;33.69
78315;SHT31;68596;52.080;4.662;2023-03-16T18:22:23;24.35;33.67
78315;SHT31;68596;52.080;4.662;2023-03-16T18:25:26;24.34;33.63
78315;SHT31;68596;52.080;4.662;2023-03-16T18:28:12;24.33;33.70
78315;SHT31;68596;52.080;4.662;2023-03-16T18:30:58;24.31;33.59
78315;SHT31;68596;52.080;4.662;2023-03-16T18:33:44;24.30;33.64
78315;SHT31;68596;52.080;4.662;2023-03-16T18:36:34;24.31;33.67
78315;SHT31;68596;52.080;4.662;2023-03-16T18:39:20;24.28;33.66
78315;SHT31;68596;52.080;4.662;2023-03-16T18:42:05;24.27;33.59
78315;SHT31;68596;52.080;4.662;2023-03-16T18:44:50;24.24;33.65
78315;SHT31;68596;52.080;4.662;2023-03-16T18:47:36;24.21;33.69
78315;SHT31;68596;52.080;4.662;2023-03-16T18:50:25;24.24;33.62